IS08 weather

Curless Airport
Summum, Illinois, United States

Public forecast

Using degrees Fahrenheit for public forecast. Weather courtesy of forecast.io.

METAR (pilot weather report)

Closest report is Macomb Municipal Airport, 24.5 nm (45.4 km) NW. Retrieved 2019/05/21 08:15 UTC (0 seconds ago):

KMQB 210815Z AUTO 10016G23KT 4SM RA SCT048 BKN060 OVC070 07/06 A3005 RMK AO2 P0007 T00730060

TAF (pilot weather forecast)

Closest forecast is General Wayne A. Downing Peoria International Airport, 34.6 nm (64.1 km) NE. Retrieved 2019/05/21 06:22 UTC (2 hours ago):

TAF KPIA 210520Z 2106/2206 09008KT P6SM OVC120 FM210800 08014G22KT P6SM -SHRA SCT050 OVC080 FM211400 10018G26KT P6SM -SHRA OVC025 FM212100 10017G27KT P6SM BKN035 FM220200 11017G25KT 5SM SHRA BR VCTS OVC035CB